Time;durP1;ratioP1;P1;durP2;ratioP2;P2;SDS_P1;SDS_P2;PMS_P1;PMS_P2;Temp;Humidity;BMP_temperature;BMP_pressure;BME280_temperature;BME280_humidity;BME280_pressure;Samples;Min_cycle;Max_cycle;Signal;HPM_P1;HPM_P2
2022/12/02 00:01:50;;;;;;;13.38;9.82;;;;;;;4.02;100.00;99150.78;4152668;28;20580;-50
2022/12/02 00:03:56;;;;;;;12.20;10.70;;;;;;;4.05;100.00;99144.97;4154233;28;20214;-49
2022/12/02 00:06:05;;;;;;;9.68;8.63;;;;;;;4.09;100.00;99146.28;4154409;28;20629;-49
2022/12/02 00:08:30;;;;;;;9.70;8.70;;;;;;;4.00;100.00;99142.00;4153254;28;20331;-49
2022/12/02 00:10:34;;;;;;;11.45;10.07;;;;;;;3.99;100.00;99140.31;4169139;28;20200;-50
2022/12/02 00:12:38;;;;;;;13.15;10.63;;;;;;;4.06;100.00;99140.41;4152926;28;20291;-49
2022/12/02 00:14:43;;;;;;;11.93;8.77;;;;;;;3.83;100.00;99129.75;4153249;28;20281;-49
2022/12/02 00:16:49;;;;;;;10.23;8.55;;;;;;;3.83;100.00;99135.19;4150882;28;20205;-49
2022/12/02 00:18:55;;;;;;;12.88;9.63;;;;;;;3.88;100.00;99132.72;4154110;28;20201;-50
2022/12/02 00:21:01;;;;;;;10.90;8.57;;;;;;;3.87;100.00;99131.03;4155270;28;20220;-50
2022/12/02 00:23:06;;;;;;;10.48;9.48;;;;;;;3.87;100.00;99133.75;4153420;28;20205;-50
2022/12/02 00:25:12;;;;;;;10.30;8.82;;;;;;;3.88;100.00;99130.00;4157693;28;20231;-50
2022/12/02 00:27:23;;;;;;;9.43;8.43;;;;;;;3.90;100.00;99132.53;4157472;28;20202;-50
2022/12/02 00:29:27;;;;;;;12.02;10.23;;;;;;;3.96;100.00;99135.31;4154264;28;20959;-49
2022/12/02 00:31:32;;;;;;;14.13;9.73;;;;;;;3.99;100.00;99132.22;4153957;28;20209;-49
2022/12/02 00:33:36;;;;;;;10.38;8.60;;;;;;;3.91;100.00;99126.94;4152071;28;20292;-49
2022/12/02 00:35:42;;;;;;;14.70;10.43;;;;;;;3.99;100.00;99124.09;4153289;28;20224;-49
2022/12/02 00:37:47;;;;;;;12.35;10.07;;;;;;;4.03;100.00;99128.09;4152451;28;20204;-49
2022/12/02 00:39:53;;;;;;;10.60;9.50;;;;;;;3.87;100.00;99122.09;4153804;28;20213;-50
2022/12/02 00:41:58;;;;;;;10.20;8.93;;;;;;;3.95;100.00;99120.06;4157735;28;20205;-49
2022/12/02 00:46:33;;;;;;;14.15;8.10;;;;;;;3.92;100.00;99117.78;4156363;28;20234;-50
2022/12/02 00:48:37;;;;;;;10.27;8.73;;;;;;;4.00;100.00;99114.94;4157072;28;20224;-50
2022/12/02 00:50:42;;;;;;;11.00;9.73;;;;;;;3.92;100.00;99112.34;4156586;28;20208;-50
2022/12/02 00:52:47;;;;;;;8.40;7.50;;;;;;;3.97;100.00;99115.31;4158507;28;20200;-50
2022/12/02 00:54:51;;;;;;;10.98;9.95;;;;;;;3.96;100.00;99113.66;4158955;28;20315;-49
2022/12/02 00:56:56;;;;;;;10.43;9.38;;;;;;;3.94;100.00;99104.06;4153202;28;20207;-51
2022/12/02 00:59:01;;;;;;;11.57;8.70;;;;;;;3.97;100.00;99099.09;4155126;28;20662;-50
2022/12/02 01:01:08;;;;;;;11.05;9.80;;;;;;;3.96;100.00;99107.38;4154732;28;20220;-49
2022/12/02 01:03:13;;;;;;;10.45;9.32;;;;;;;3.94;100.00;99110.28;4154253;28;20216;-49
2022/12/02 01:05:19;;;;;;;16.15;10.68;;;;;;;3.87;100.00;99100.44;4155934;28;20225;-50
2022/12/02 01:07:24;;;;;;;11.77;10.57;;;;;;;4.03;100.00;99095.59;4155644;28;20200;-50
2022/12/02 01:09:29;;;;;;;10.68;9.60;;;;;;;3.90;100.00;99095.47;4155791;28;20612;-49
2022/12/02 01:11:33;;;;;;;12.70;10.82;;;;;;;3.83;100.00;99091.03;4157909;28;20708;-50
2022/12/02 01:13:37;;;;;;;12.95;9.98;;;;;;;3.94;100.00;99085.91;4154523;28;21220;-49
2022/12/02 01:15:41;;;;;;;11.65;9.30;;;;;;;3.94;100.00;99104.88;4160640;28;20745;-48
2022/12/02 01:17:46;;;;;;;18.17;10.38;;;;;;;4.04;100.00;99083.75;4174602;28;20242;-51
2022/12/02 01:19:50;;;;;;;11.30;9.85;;;;;;;3.98;100.00;99089.94;4156760;28;20604;-49
2022/12/02 01:21:54;;;;;;;12.25;9.90;;;;;;;3.87;100.00;99087.72;4155977;28;20644;-50
2022/12/02 01:24:00;;;;;;;11.05;9.85;;;;;;;3.93;100.00;99086.13;4158621;28;20207;-49
2022/12/02 01:26:05;;;;;;;11.23;8.88;;;;;;;3.85;100.00;99092.50;4155678;28;20965;-51
2022/12/02 01:28:10;;;;;;;13.30;10.10;;;;;;;3.83;100.00;99091.03;4159181;28;20209;-49
2022/12/02 01:30:16;;;;;;;11.35;10.18;;;;;;;3.89;100.00;99093.81;4155558;28;20220;-50
2022/12/02 01:32:22;;;;;;;15.80;11.20;;;;;;;3.87;100.00;99097.75;4155607;28;20208;-50
2022/12/02 01:34:27;;;;;;;12.57;11.05;;;;;;;3.92;100.00;99096.13;4155985;28;20251;-49
2022/12/02 01:36:32;;;;;;;11.75;9.30;;;;;;;3.91;100.00;99102.56;4155678;28;20690;-49
2022/12/02 01:38:36;;;;;;;11.25;10.05;;;;;;;3.94;100.00;99093.22;4154172;28;20225;-50
2022/12/02 01:40:42;;;;;;;11.15;10.00;;;;;;;3.97;100.00;99093.66;4154324;28;20225;-49
2022/12/02 01:42:47;;;;;;;11.65;10.30;;;;;;;3.94;100.00;99088.63;4154795;28;20209;-49
2022/12/02 01:44:51;;;;;;;10.40;9.38;;;;;;;3.93;100.00;99080.72;4155800;28;20287;-48
2022/12/02 01:46:56;;;;;;;14.27;10.70;;;;;;;3.96;100.00;99085.72;4155770;28;20319;-50
2022/12/02 01:49:02;;;;;;;11.30;10.20;;;;;;;3.95;100.00;99089.47;4156236;28;20304;-49
2022/12/02 01:51:05;;;;;;;13.40;10.20;;;;;;;3.94;100.00;99091.34;4153670;28;20197;-49
2022/12/02 01:53:11;;;;;;;10.88;8.93;;;;;;;3.98;100.00;99084.50;4154090;28;20213;-49
2022/12/02 01:55:19;;;;;;;13.68;10.60;;;;;;;3.95;100.00;99084.88;4158297;28;20230;-49
2022/12/02 01:57:27;;;;;;;11.13;10.00;;;;;;;3.91;100.00;99094.44;4156301;28;20270;-49
2022/12/02 01:59:32;;;;;;;14.85;11.43;;;;;;;3.96;100.00;99094.72;4155884;28;20242;-51
2022/12/02 02:01:38;;;;;;;14.32;10.25;;;;;;;3.91;100.00;99096.31;4152242;28;20229;-49
2022/12/02 02:03:42;;;;;;;12.85;11.50;;;;;;;3.87;100.00;99095.84;4151016;28;20632;-49
2022/12/02 02:05:47;;;;;;;10.15;8.98;;;;;;;3.94;100.00;99099.47;4155127;28;20225;-49
2022/12/02 02:07:57;;;;;;;13.50;11.45;;;;;;;3.92;100.00;99085.28;4155142;28;20213;-49
2022/12/02 02:10:02;;;;;;;12.95;9.82;;;;;;;3.95;100.00;99087.59;4157306;28;20239;-48
2022/12/02 02:12:06;;;;;;;10.77;9.68;;;;;;;3.81;100.00;99093.91;4154857;28;20208;-49
2022/12/02 02:14:24;;;;;;;15.50;9.88;;;;;;;3.92;100.00;99101.53;4171972;28;20604;-49
2022/12/02 02:16:32;;;;;;;13.65;9.48;;;;;;;3.96;100.00;99091.16;4171484;28;20208;-50
2022/12/02 02:18:36;;;;;;;10.18;9.05;;;;;;;3.88;100.00;99094.00;4141117;28;20288;-48
2022/12/02 02:20:42;;;;;;;11.95;10.13;;;;;;;3.89;100.00;99077.56;4154823;28;20225;-50
2022/12/02 02:22:58;;;;;;;16.50;11.63;;;;;;;3.95;100.00;99079.47;4155530;28;20201;-50
2022/12/02 02:25:12;;;;;;;12.88;10.82;;;;;;;3.94;100.00;99076.97;4172328;28;20240;-49
2022/12/02 02:27:23;;;;;;;12.90;9.80;;;;;;;3.96;100.00;99080.31;4155165;28;20216;-51
2022/12/02 02:29:27;;;;;;;12.00;10.52;;;;;;;3.95;100.00;99079.47;4155970;28;20266;-49
2022/12/02 02:31:32;;;;;;;12.27;10.85;;;;;;;3.91;100.00;99083.63;4153178;28;20236;-50
2022/12/02 02:33:40;;;;;;;16.10;10.70;;;;;;;3.96;100.00;99086.59;4140375;28;20561;-49
2022/12/02 02:35:48;;;;;;;13.23;9.45;;;;;;;3.98;100.00;99084.50;4155256;28;20223;-49
2022/12/02 02:37:55;;;;;;;13.55;12.20;;;;;;;4.00;100.00;99082.44;4156446;28;20223;-49
2022/12/02 02:40:01;;;;;;;11.50;10.35;;;;;;;3.88;100.00;99088.56;4137474;28;20212;-49
2022/12/02 02:42:06;;;;;;;17.40;11.80;;;;;;;3.88;100.00;99073.16;4152885;28;20236;-49
2022/12/02 02:44:14;;;;;;;20.25;12.13;;;;;;;3.88;100.00;99078.56;4153891;28;20200;-51
2022/12/02 02:46:30;;;;;;;17.05;11.23;;;;;;;3.91;100.00;99067.38;4167122;28;20262;-49
2022/12/02 02:48:37;;;;;;;23.40;12.68;;;;;;;3.93;100.00;99068.00;4152550;28;20249;-49
2022/12/02 02:50:46;;;;;;;8.98;8.07;;;;;;;3.92;100.00;99066.34;4169811;28;20207;-51
2022/12/02 02:52:52;;;;;;;14.27;11.27;;;;;;;3.94;100.00;99066.97;4157711;28;20765;-50
2022/12/02 02:54:56;;;;;;;13.27;11.05;;;;;;;3.88;100.00;99062.34;4155182;28;20808;-50
2022/12/02 02:57:01;;;;;;;16.55;11.73;;;;;;;3.84;100.00;99062.91;4157721;28;20214;-50
2022/12/02 02:59:14;;;;;;;15.52;11.65;;;;;;;3.85;100.00;99059.19;4140155;28;20206;-50
2022/12/02 03:01:32;;;;;;;17.10;12.32;;;;;;;3.95;100.00;99063.22;4155506;28;20222;-50
2022/12/02 03:03:48;;;;;;;14.55;12.70;;;;;;;4.00;100.00;99055.38;4154440;28;20248;-49
2022/12/02 03:05:53;;;;;;;12.75;11.43;;;;;;;3.97;100.00;99055.78;4156328;28;20274;-49
2022/12/02 03:07:58;;;;;;;13.48;11.32;;;;;;;3.94;100.00;99045.31;4155488;28;20238;-50
2022/12/02 03:10:04;;;;;;;14.82;10.65;;;;;;;3.89;100.00;99052.34;4154149;28;20222;-50
2022/12/02 03:12:10;;;;;;;14.93;13.13;;;;;;;3.97;100.00;99050.34;4167944;28;20883;-49
2022/12/02 03:14:18;;;;;;;17.80;12.15;;;;;;;3.90;100.00;99049.47;4152869;28;20219;-49
2022/12/02 03:16:28;;;;;;;20.65;12.82;;;;;;;4.01;100.00;99051.63;4140017;28;20232;-50
2022/12/02 03:18:33;;;;;;;16.05;11.32;;;;;;;3.89;100.00;99039.66;4156224;28;20581;-49
2022/12/02 03:20:39;;;;;;;16.85;12.82;;;;;;;3.95;100.00;99046.16;4156640;28;20251;-50
2022/12/02 03:22:42;;;;;;;18.90;12.48;;;;;;;3.87;100.00;99039.00;4157262;28;20209;-49
2022/12/02 03:24:51;;;;;;;17.95;12.25;;;;;;;3.95;100.00;99035.34;4142887;28;20201;-49
2022/12/02 03:26:59;;;;;;;14.23;12.40;;;;;;;3.88;100.00;99029.84;4156575;28;20615;-50
2022/12/02 03:29:05;;;;;;;11.55;10.25;;;;;;;4.04;100.00;99035.00;4153786;28;20323;-49
2022/12/02 03:31:14;;;;;;;14.80;12.48;;;;;;;3.91;100.00;99034.03;4157144;28;20208;-49
2022/12/02 03:33:19;;;;;;;16.60;12.18;;;;;;;3.97;100.00;99038.69;4157626;28;20205;-49
2022/12/02 03:35:25;;;;;;;17.38;11.93;;;;;;;3.88;100.00;99032.56;4156750;28;20251;-49
2022/12/02 03:37:30;;;;;;;15.95;11.82;;;;;;;3.86;100.00;99026.50;4154502;28;20208;-49
2022/12/02 03:39:38;;;;;;;15.68;11.73;;;;;;;4.04;100.00;99035.00;4153452;28;20209;-49
2022/12/02 03:41:47;;;;;;;14.63;12.93;;;;;;;3.88;100.00;99037.97;4154388;28;20311;-49
2022/12/02 03:43:54;;;;;;;12.95;10.30;;;;;;;3.79;100.00;99039.16;4153430;28;20224;-49
2022/12/02 03:46:00;;;;;;;13.32;11.48;;;;;;;3.86;100.00;99031.94;4155156;28;20287;-49
2022/12/02 03:48:06;;;;;;;13.23;11.63;;;;;;;3.85;100.00;99032.97;4142617;28;20217;-49
2022/12/02 03:50:14;;;;;;;14.25;11.70;;;;;;;3.94;100.00;99034.47;4154747;28;20226;-49
2022/12/02 03:52:20;;;;;;;14.10;12.38;;;;;;;3.82;100.00;99030.66;4154580;28;20638;-49
2022/12/02 03:54:27;;;;;;;15.05;12.70;;;;;;;3.80;100.00;99021.88;4138833;28;20298;-49
2022/12/02 03:56:37;;;;;;;18.27;13.27;;;;;;;3.73;100.00;99017.47;4155375;28;20205;-49
2022/12/02 03:58:50;;;;;;;13.30;11.95;;;;;;;3.86;100.00;99023.00;4155919;28;20205;-49
2022/12/02 04:00:56;;;;;;;14.63;11.70;;;;;;;3.99;100.00;99020.38;4153251;28;20232;-49
2022/12/02 04:03:00;;;;;;;12.85;11.40;;;;;;;3.90;100.00;99011.56;4134907;28;20206;-49
2022/12/02 04:05:05;;;;;;;15.77;10.98;;;;;;;3.85;100.00;99007.75;4152540;28;20228;-50
2022/12/02 04:07:09;;;;;;;19.70;13.50;;;;;;;3.80;100.00;99008.34;4156332;28;20200;-49
2022/12/02 04:09:16;;;;;;;18.55;12.32;;;;;;;3.84;100.00;99006.94;4156764;28;20200;-49
2022/12/02 04:11:20;;;;;;;16.13;11.57;;;;;;;3.94;100.00;98995.78;4153755;28;20287;-49
2022/12/02 04:13:25;;;;;;;16.15;12.75;;;;;;;3.83;100.00;98999.84;4137459;28;20209;-49
2022/12/02 04:15:29;;;;;;;15.82;14.25;;;;;;;3.84;100.00;98996.09;4155790;28;20247;-49
2022/12/02 04:17:33;;;;;;;19.25;12.65;;;;;;;3.84;100.00;98998.81;4157465;28;20323;-49
2022/12/02 04:19:37;;;;;;;13.80;11.80;;;;;;;3.90;100.00;98994.47;4159052;28;20267;-49
2022/12/02 04:21:41;;;;;;;16.08;10.88;;;;;;;3.74;100.00;99001.00;4156765;28;20679;-49
2022/12/02 04:23:44;;;;;;;13.63;11.82;;;;;;;3.85;100.00;98997.78;4158590;28;20213;-49
2022/12/02 04:25:49;;;;;;;14.05;12.40;;;;;;;3.86;100.00;98988.63;4172105;28;20233;-49
2022/12/02 04:27:55;;;;;;;17.48;12.18;;;;;;;3.87;100.00;98990.28;4158573;28;20348;-49
2022/12/02 04:30:00;;;;;;;13.50;11.75;;;;;;;3.84;100.00;98990.69;4156718;28;20205;-50
2022/12/02 04:32:09;;;;;;;16.10;11.57;;;;;;;3.92;100.00;98981.56;4157163;28;20212;-50
2022/12/02 04:34:14;;;;;;;14.77;12.50;;;;;;;3.85;100.00;98986.09;4160094;28;20201;-49
2022/12/02 04:36:20;;;;;;;12.63;11.05;;;;;;;3.87;100.00;98979.47;4157926;28;20363;-49
2022/12/02 04:38:25;;;;;;;20.45;13.30;;;;;;;3.88;100.00;98981.13;4158868;28;20201;-49
2022/12/02 04:40:29;;;;;;;14.55;12.55;;;;;;;3.70;100.00;98983.50;4156913;28;20740;-49
2022/12/02 04:42:33;;;;;;;16.90;12.95;;;;;;;3.85;100.00;98981.53;4146245;28;20247;-49
2022/12/02 04:44:38;;;;;;;17.08;12.90;;;;;;;3.95;100.00;98982.00;4156817;28;20279;-49
2022/12/02 04:46:43;;;;;;;18.58;12.43;;;;;;;3.73;100.00;98982.28;4155014;28;20286;-48
2022/12/02 04:48:48;;;;;;;12.98;11.50;;;;;;;3.78;100.00;98983.34;4156037;28;20209;-49
2022/12/02 04:50:52;;;;;;;13.23;11.73;;;;;;;3.77;100.00;98984.41;4156656;28;20214;-49
2022/12/02 04:52:56;;;;;;;15.25;12.57;;;;;;;3.85;100.00;98976.13;4159809;28;20246;-48
2022/12/02 04:55:01;;;;;;;13.75;12.18;;;;;;;3.84;100.00;98979.88;4158214;28;20227;-49
2022/12/02 04:57:07;;;;;;;16.70;12.40;;;;;;;3.92;100.00;98978.88;4156566;28;20205;-48
2022/12/02 04:59:12;;;;;;;13.07;10.85;;;;;;;3.86;100.00;98969.66;4160133;28;20212;-50
2022/12/02 05:01:17;;;;;;;14.65;12.20;;;;;;;3.91;100.00;98969.94;4156062;28;20275;-49
2022/12/02 05:03:21;;;;;;;14.90;12.23;;;;;;;3.95;100.00;98971.19;4156101;28;20296;-49
2022/12/02 05:05:25;;;;;;;15.80;12.80;;;;;;;3.89;100.00;98971.16;4156948;28;20955;-49
2022/12/02 05:07:30;;;;;;;15.95;10.00;;;;;;;3.86;100.00;98968.84;4161867;28;20668;-50
2022/12/02 05:09:36;;;;;;;15.15;12.07;;;;;;;3.87;100.00;98962.41;4158567;28;20211;-49
2022/12/02 05:11:40;;;;;;;13.85;11.95;;;;;;;3.91;100.00;98958.25;4156597;28;20209;-50
2022/12/02 05:13:44;;;;;;;15.73;11.48;;;;;;;3.89;100.00;98961.19;4141907;28;20232;-49
2022/12/02 05:15:48;;;;;;;19.10;13.25;;;;;;;3.91;100.00;98959.09;4157942;28;20300;-50
2022/12/02 05:17:53;;;;;;;13.20;11.85;;;;;;;3.77;100.00;98951.91;4144885;28;20224;-49
2022/12/02 05:20:01;;;;;;;14.43;12.60;;;;;;;3.59;100.00;98948.84;4156769;28;20205;-49
2022/12/02 05:22:06;;;;;;;14.35;12.23;;;;;;;3.42;100.00;98944.75;4156810;28;20232;-49
2022/12/02 05:24:11;;;;;;;17.48;14.27;;;;;;;3.40;100.00;98951.41;4157626;28;20544;-50
2022/12/02 05:26:16;;;;;;;20.55;15.60;;;;;;;3.41;100.00;98945.78;4159659;28;20741;-50
2022/12/02 05:28:22;;;;;;;15.93;13.93;;;;;;;3.51;100.00;98949.00;4168217;28;20252;-50
2022/12/02 05:30:27;;;;;;;15.82;12.60;;;;;;;3.47;100.00;98945.00;4156720;28;20302;-50
2022/12/02 05:32:31;;;;;;;25.92;13.90;;;;;;;3.49;100.00;98942.94;4157411;28;20647;-49
2022/12/02 05:34:36;;;;;;;16.60;13.07;;;;;;;3.53;100.00;98940.69;4156780;28;20213;-49
2022/12/02 05:36:40;;;;;;;15.65;12.50;;;;;;;3.58;100.00;98947.19;4162390;28;20209;-52
2022/12/02 05:38:45;;;;;;;19.55;14.63;;;;;;;3.50;100.00;98939.22;4161500;28;20231;-50
2022/12/02 05:40:55;;;;;;;21.65;13.85;;;;;;;3.53;100.00;98944.22;4160161;28;20200;-50
2022/12/02 05:43:06;;;;;;;16.83;13.82;;;;;;;3.51;100.00;98946.28;4157536;28;20299;-49
2022/12/02 05:45:18;;;;;;;14.75;12.77;;;;;;;3.49;100.00;98940.25;4155437;28;20263;-52
2022/12/02 05:47:24;;;;;;;18.75;12.98;;;;;;;3.63;100.00;98939.31;4156928;28;20240;-50
2022/12/02 05:49:30;;;;;;;19.35;14.73;;;;;;;3.60;100.00;98939.69;4157033;28;20204;-49
2022/12/02 05:51:35;;;;;;;27.38;15.00;;;;;;;3.52;100.00;98937.13;4170321;28;20208;-49
2022/12/02 05:53:40;;;;;;;17.13;14.60;;;;;;;3.48;100.00;98941.25;4151449;28;20209;-49
2022/12/02 05:55:46;;;;;;;16.98;12.43;;;;;;;3.57;100.00;98939.25;4154891;28;20270;-49
2022/12/02 05:57:51;;;;;;;16.50;12.75;;;;;;;3.33;100.00;98940.50;4156706;28;20205;-49
2022/12/02 06:00:20;;;;;;;18.02;14.75;;;;;;;3.30;100.00;98943.59;4154277;28;20297;-49
2022/12/02 06:02:31;;;;;;;26.58;15.00;;;;;;;3.43;100.00;98938.31;4149627;28;20220;-49
2022/12/02 06:04:43;;;;;;;32.97;14.55;;;;;;;3.37;100.00;98939.09;4156879;28;20224;-49
2022/12/02 06:06:49;;;;;;;19.27;15.65;;;;;;;3.37;100.00;98936.38;4159329;28;20205;-49
2022/12/02 06:08:55;;;;;;;21.67;13.85;;;;;;;3.37;100.00;98939.09;4169877;28;20284;-49
2022/12/02 06:11:07;;;;;;;22.48;14.90;;;;;;;3.48;100.00;98946.66;4170085;28;20208;-49
2022/12/02 06:13:20;;;;;;;19.85;13.55;;;;;;;3.56;100.00;98935.72;4151755;28;20217;-49
2022/12/02 06:15:25;;;;;;;21.52;15.73;;;;;;;3.65;100.00;98942.66;4156989;28;20224;-50
2022/12/02 06:17:30;;;;;;;26.27;14.13;;;;;;;3.68;100.00;98936.84;4156400;28;20287;-50
2022/12/02 06:19:45;;;;;;;19.55;14.25;;;;;;;3.59;100.00;98935.31;4153271;28;20256;-49
2022/12/02 06:21:50;;;;;;;17.15;14.13;;;;;;;3.55;100.00;98936.72;4154317;28;20271;-49
2022/12/02 06:23:57;;;;;;;23.58;12.60;;;;;;;3.55;100.00;98936.72;4156039;28;20232;-50
2022/12/02 06:26:01;;;;;;;18.55;14.05;;;;;;;3.55;100.00;98939.44;4154013;28;20228;-49
2022/12/02 06:28:30;;;;;;;16.33;13.70;;;;;;;3.67;100.00;98935.16;4153507;28;20275;-49
2022/12/02 06:30:37;;;;;;;15.73;12.70;;;;;;;3.60;100.00;98933.47;4151839;28;20217;-50
2022/12/02 06:32:46;;;;;;;19.30;13.55;;;;;;;3.69;100.00;98930.44;4154136;28;20308;-50
2022/12/02 06:34:51;;;;;;;28.88;14.07;;;;;;;3.69;100.00;98930.44;4170367;28;20212;-49
2022/12/02 06:36:58;;;;;;;21.35;15.43;;;;;;;3.61;100.00;98930.53;4155608;28;20291;-50
2022/12/02 06:39:16;;;;;;;23.80;16.05;;;;;;;3.73;100.00;98930.88;4153293;28;20211;-49
2022/12/02 06:41:26;;;;;;;21.10;14.02;;;;;;;3.55;100.00;98931.31;4143760;28;20205;-49
2022/12/02 06:43:30;;;;;;;22.15;13.73;;;;;;;3.55;100.00;98938.63;4152894;28;20720;-49
2022/12/02 06:45:36;;;;;;;23.95;16.35;;;;;;;3.67;100.00;98932.47;4153662;28;20294;-50
2022/12/02 06:47:48;;;;;;;28.67;16.38;;;;;;;3.69;100.00;98938.53;4158781;28;20205;-50
2022/12/02 06:49:52;;;;;;;23.75;15.52;;;;;;;3.78;100.00;98942.75;4155611;28;20232;-50
2022/12/02 06:52:00;;;;;;;30.52;13.93;;;;;;;3.67;100.00;98939.75;4154771;28;20792;-49
2022/12/02 06:54:04;;;;;;;22.27;14.60;;;;;;;3.51;100.00;98940.88;4170287;28;20195;-49
2022/12/02 06:56:14;;;;;;;30.63;15.88;;;;;;;3.59;100.00;98924.50;4153958;28;20224;-50
2022/12/02 06:59:01;;;;;;;17.08;14.20;;;;;;;3.65;100.00;98929.13;4152509;28;20678;-50
2022/12/02 07:01:30;;;;;;;20.23;15.27;;;;;;;3.55;100.00;98934.03;4118526;28;20909;-50
2022/12/02 07:03:38;;;;;;;16.92;14.68;;;;;;;3.74;100.00;98941.47;4150897;28;20259;-50
2022/12/02 07:05:42;;;;;;;24.50;16.35;;;;;;;3.71;100.00;98939.16;4138904;28;20263;-49
2022/12/02 07:07:47;;;;;;;29.67;17.30;;;;;;;3.71;100.00;98936.47;4169518;28;20204;-50
2022/12/02 07:09:55;;;;;;;25.70;14.27;;;;;;;3.78;100.00;98942.75;4156432;28;20243;-49
2022/12/02 07:12:00;;;;;;;27.02;14.85;;;;;;;3.81;100.00;98939.66;4156676;28;20766;-50
2022/12/02 07:14:07;;;;;;;23.80;14.82;;;;;;;3.86;100.00;98929.06;4152515;28;20216;-50
2022/12/02 07:16:33;;;;;;;21.73;14.50;;;;;;;3.67;100.00;98935.16;4151354;28;20300;-50
2022/12/02 07:18:41;;;;;;;31.25;16.17;;;;;;;3.68;100.00;98931.44;4154397;28;20211;-49
2022/12/02 07:20:47;;;;;;;25.63;15.13;;;;;;;3.63;100.00;98931.22;4137871;28;20220;-50
2022/12/02 07:23:05;;;;;;;24.73;14.80;;;;;;;3.57;100.00;98931.97;4154514;28;20245;-49
2022/12/02 07:25:17;;;;;;;20.85;15.35;;;;;;;3.52;100.00;98926.31;4155166;28;20265;-50
2022/12/02 07:27:25;;;;;;;40.90;18.23;;;;;;;3.55;100.00;98925.91;4153452;28;20208;-50
2022/12/02 07:29:34;;;;;;;24.20;15.25;;;;;;;3.56;100.00;98926.75;4158175;28;20554;-50
2022/12/02 07:31:43;;;;;;;20.67;15.43;;;;;;;3.41;100.00;98934.94;4156284;28;20248;-50
2022/12/02 07:33:48;;;;;;;27.95;17.05;;;;;;;3.45;100.00;98929.97;4151468;28;20216;-49
2022/12/02 07:35:54;;;;;;;35.78;17.90;;;;;;;3.40;100.00;98922.47;4155508;28;20252;-49
2022/12/02 07:37:58;;;;;;;32.92;18.50;;;;;;;3.40;100.00;98927.06;4154489;28;20200;-49
2022/12/02 07:40:06;;;;;;;41.47;15.82;;;;;;;3.38;100.00;98924.53;4153307;28;20232;-48
2022/12/02 07:42:13;;;;;;;33.58;17.80;;;;;;;3.34;100.00;98928.66;4155043;28;20212;-49
2022/12/02 07:44:23;;;;;;;30.27;15.70;;;;;;;3.36;100.00;98920.34;4156038;28;20200;-49
2022/12/02 07:46:31;;;;;;;28.15;16.38;;;;;;;3.41;100.00;98913.31;4154913;28;20266;-48
2022/12/02 07:48:45;;;;;;;23.23;16.05;;;;;;;3.47;100.00;98920.66;4154712;28;20232;-49
2022/12/02 07:50:59;;;;;;;31.70;17.90;;;;;;;3.34;100.00;98923.22;4154555;28;20208;-49
2022/12/02 07:53:06;;;;;;;29.13;14.75;;;;;;;3.30;100.00;98921.13;4154165;28;20372;-49
2022/12/02 07:55:13;;;;;;;28.48;16.35;;;;;;;3.29;100.00;98920.31;4159396;28;20282;-48
2022/12/02 07:57:26;;;;;;;38.50;17.77;;;;;;;3.43;100.00;98916.69;4138501;28;20213;-50
2022/12/02 07:59:38;;;;;;;30.77;18.05;;;;;;;3.50;100.00;98916.72;4152943;28;20689;-49
2022/12/02 08:01:48;;;;;;;29.65;16.63;;;;;;;3.60;100.00;98906.41;4154734;28;20205;-49
2022/12/02 08:03:55;;;;;;;53.85;19.00;;;;;;;3.59;100.00;98916.38;4154411;28;20689;-48
2022/12/02 08:06:00;;;;;;;31.92;16.55;;;;;;;3.64;100.00;98913.94;4156620;28;20221;-49
2022/12/02 08:08:06;;;;;;;38.92;16.73;;;;;;;3.52;100.00;98910.09;4154528;28;20204;-48
2022/12/02 08:10:12;;;;;;;35.88;15.98;;;;;;;3.57;100.00;98909.50;4154166;28;20203;-48
2022/12/02 08:12:19;;;;;;;32.78;17.63;;;;;;;3.59;100.00;98905.56;4153243;28;20681;-49
2022/12/02 08:14:25;;;;;;;27.52;15.70;;;;;;;3.48;100.00;98914.19;4142231;28;20209;-48
2022/12/02 08:16:32;;;;;;;33.40;16.10;;;;;;;3.53;100.00;98905.53;4155238;28;20236;-48
2022/12/02 08:18:38;;;;;;;37.40;19.80;;;;;;;3.58;100.00;98909.31;4155361;28;20678;-50
2022/12/02 08:20:42;;;;;;;23.35;14.35;;;;;;;3.51;100.00;98908.41;4152718;28;20205;-48
2022/12/02 08:22:51;;;;;;;27.30;14.50;;;;;;;3.50;100.00;98912.16;4153571;28;20646;-48
2022/12/02 08:24:56;;;;;;;20.35;14.70;;;;;;;3.48;100.00;98908.78;4153315;28;20224;-49
2022/12/02 08:27:01;;;;;;;25.98;16.05;;;;;;;3.46;100.00;98905.47;4167794;28;20209;-48
2022/12/02 08:29:07;;;;;;;24.10;15.85;;;;;;;3.68;100.00;98915.19;4153296;28;20323;-48
2022/12/02 08:31:12;;;;;;;30.73;16.85;;;;;;;3.63;100.00;98917.69;4152502;28;20296;-48
2022/12/02 08:33:16;;;;;;;18.77;15.35;;;;;;;3.55;100.00;98908.88;4157244;28;20639;-48
2022/12/02 08:35:23;;;;;;;27.67;16.52;;;;;;;3.58;100.00;98909.31;4154064;28;20228;-47
2022/12/02 08:37:28;;;;;;;24.52;15.70;;;;;;;3.57;100.00;98913.03;4157079;28;20200;-48
2022/12/02 08:39:35;;;;;;;19.38;13.40;;;;;;;3.47;100.00;98904.41;4141755;28;20773;-50
2022/12/02 08:41:41;;;;;;;34.30;15.60;;;;;;;3.45;100.00;98908.34;4150511;28;20200;-48
2022/12/02 08:43:46;;;;;;;21.27;14.75;;;;;;;3.42;100.00;98912.31;4149189;28;20236;-48
2022/12/02 08:45:52;;;;;;;17.98;12.57;;;;;;;3.40;100.00;98911.66;4142675;28;20691;-47
2022/12/02 08:47:58;;;;;;;21.77;13.60;;;;;;;3.26;100.00;98914.44;4148002;28;20209;-49
2022/12/02 08:50:04;;;;;;;17.23;14.63;;;;;;;3.31;100.00;98912.81;4148032;28;20275;-48
2022/12/02 08:52:10;;;;;;;24.45;14.50;;;;;;;3.38;100.00;98913.72;4148451;28;20254;-49
2022/12/02 08:54:16;;;;;;;23.50;13.40;;;;;;;3.31;100.00;98918.22;4146032;28;20299;-48
2022/12/02 08:56:21;;;;;;;18.98;12.80;;;;;;;3.33;100.00;98916.16;4155886;28;20226;-49
2022/12/02 08:58:26;;;;;;;23.00;15.13;;;;;;;3.31;100.00;98918.22;4154628;28;20211;-49
2022/12/02 09:00:33;;;;;;;19.55;13.70;;;;;;;3.33;100.00;98909.94;4157942;28;20201;-48
2022/12/02 09:02:42;;;;;;;21.98;13.63;;;;;;;3.38;100.00;98912.88;4156514;28;20213;-48
2022/12/02 09:04:47;;;;;;;27.55;13.85;;;;;;;3.42;100.00;98912.31;4156523;28;20200;-48
2022/12/02 09:07:07;;;;;;;21.73;14.00;;;;;;;3.21;100.00;98912.28;4155638;28;20205;-47
2022/12/02 09:23:38;;;;;;;22.13;14.63;;;;;;;3.18;100.00;98912.69;4254415;27;21089;-44
2022/12/02 09:25:40;;;;;;;29.63;16.08;;;;;;;3.26;100.00;98907.16;4219993;27;20257;-44
2022/12/02 09:27:42;;;;;;;26.23;15.07;;;;;;;3.32;100.00;98909.09;4256757;27;20228;-44
2022/12/02 09:29:44;;;;;;;24.23;14.98;;;;;;;3.37;100.00;98912.03;4252257;27;20295;-44
2022/12/02 09:31:45;;;;;;;37.05;15.90;;;;;;;3.34;100.00;98901.59;4221242;27;20593;-45
2022/12/02 09:33:47;;;;;;;35.88;18.58;;;;;;;3.25;100.00;98918.16;4253506;27;20250;-44
2022/12/02 09:35:50;;;;;;;27.42;15.88;;;;;;;3.14;100.00;98906.00;4233107;27;20755;-44
2022/12/02 09:37:52;;;;;;;32.08;17.55;;;;;;;3.27;100.00;98911.53;4242125;27;20206;-45
2022/12/02 09:39:54;;;;;;;37.85;17.38;;;;;;;3.25;100.00;98910.03;4234987;27;20194;-44
2022/12/02 09:41:56;;;;;;;47.55;18.38;;;;;;;3.38;100.00;98912.88;4234478;27;20205;-44
2022/12/02 09:43:57;;;;;;;41.47;17.50;;;;;;;3.45;100.00;98906.50;4254111;27;20675;-44
2022/12/02 09:45:59;;;;;;;36.00;15.35;;;;;;;3.52;100.00;98903.81;4223688;27;20259;-44
2022/12/02 09:48:01;;;;;;;16.23;12.65;;;;;;;3.34;100.00;98904.31;4221246;28;20210;-45
2022/12/02 09:50:04;;;;;;;21.15;13.52;;;;;;;3.34;100.00;98903.50;4240620;27;20335;-45
2022/12/02 09:52:14;;;;;;;24.00;13.63;;;;;;;3.17;100.00;98900.22;4239572;27;20325;-45
2022/12/02 09:54:16;;;;;;;20.33;15.20;;;;;;;3.26;100.00;98903.63;4237674;27;20294;-45
2022/12/02 09:56:20;;;;;;;36.38;16.42;;;;;;;3.14;100.00;98899.78;4241371;27;20229;-45
2022/12/02 09:58:21;;;;;;;22.70;15.65;;;;;;;3.12;100.00;98891.84;4236197;27;20197;-46
2022/12/02 10:00:24;;;;;;;30.42;16.23;;;;;;;3.10;100.00;98893.91;4250959;27;21124;-45
2022/12/02 10:02:36;;;;;;;30.90;16.73;;;;;;;3.29;100.00;98897.81;4242086;27;20214;-45